sensor_id;sensor_type;location;lat;lon;timestamp;temperature;humidity
43999;DHT22;51319;52.162;5.302;2023-02-18T00:00:27;10.30;99.90
43999;DHT22;51319;52.162;5.302;2023-02-18T00:02:54;10.30;99.90
43999;DHT22;51319;52.162;5.302;2023-02-18T00:05:24;10.30;99.90
43999;DHT22;51319;52.162;5.302;2023-02-18T00:07:50;10.30;99.90
43999;DHT22;51319;52.162;5.302;2023-02-18T00:10:17;10.30;99.90
43999;DHT22;51319;52.162;5.302;2023-02-18T00:12:44;10.30;99.90
43999;DHT22;51319;52.162;5.302;2023-02-18T00:15:11;10.30;99.90
43999;DHT22;51319;52.162;5.302;2023-02-18T00:17:38;10.30;99.90
43999;DHT22;51319;52.162;5.302;2023-02-18T00:20:06;10.30;99.90
43999;DHT22;51319;52.162;5.302;2023-02-18T00:22:34;10.30;99.90
43999;DHT22;51319;52.162;5.302;2023-02-18T00:25:01;10.30;99.90
43999;DHT22;51319;52.162;5.302;2023-02-18T00:27:28;10.40;99.90
43999;DHT22;51319;52.162;5.302;2023-02-18T00:29:55;10.40;99.90
43999;DHT22;51319;52.162;5.302;2023-02-18T00:32:22;10.30;99.90
43999;DHT22;51319;52.162;5.302;2023-02-18T00:34:49;10.30;99.90
43999;DHT22;51319;52.162;5.302;2023-02-18T00:37:16;10.30;99.90
43999;DHT22;51319;52.162;5.302;2023-02-18T00:39:42;10.30;99.90
43999;DHT22;51319;52.162;5.302;2023-02-18T00:42:10;10.30;99.90
43999;DHT22;51319;52.162;5.302;2023-02-18T00:44:37;10.30;99.90
43999;DHT22;51319;52.162;5.302;2023-02-18T00:47:03;10.30;99.90
43999;DHT22;51319;52.162;5.302;2023-02-18T00:49:30;10.30;99.90
43999;DHT22;51319;52.162;5.302;2023-02-18T00:51:57;10.30;99.90
43999;DHT22;51319;52.162;5.302;2023-02-18T00:54:24;10.20;99.90
43999;DHT22;51319;52.162;5.302;2023-02-18T00:56:51;10.30;99.90
43999;DHT22;51319;52.162;5.302;2023-02-18T00:59:18;10.20;99.90
43999;DHT22;51319;52.162;5.302;2023-02-18T01:01:45;10.20;99.90
43999;DHT22;51319;52.162;5.302;2023-02-18T01:04:12;10.20;99.90
43999;DHT22;51319;52.162;5.302;2023-02-18T01:06:39;10.20;99.90
43999;DHT22;51319;52.162;5.302;2023-02-18T01:09:06;10.10;99.90
43999;DHT22;51319;52.162;5.302;2023-02-18T01:11:33;10.10;99.90
43999;DHT22;51319;52.162;5.302;2023-02-18T01:14:00;10.10;99.90
43999;DHT22;51319;52.162;5.302;2023-02-18T01:16:27;10.10;99.90
43999;DHT22;51319;52.162;5.302;2023-02-18T01:18:54;10.00;99.90
43999;DHT22;51319;52.162;5.302;2023-02-18T01:21:20;10.10;99.90
43999;DHT22;51319;52.162;5.302;2023-02-18T01:23:47;10.00;99.90
43999;DHT22;51319;52.162;5.302;2023-02-18T01:26:14;10.00;99.90
43999;DHT22;51319;52.162;5.302;2023-02-18T01:28:41;10.00;99.90
43999;DHT22;51319;52.162;5.302;2023-02-18T01:31:10;10.00;99.90
43999;DHT22;51319;52.162;5.302;2023-02-18T01:33:39;10.00;99.90
43999;DHT22;51319;52.162;5.302;2023-02-18T01:36:10;9.90;99.90
43999;DHT22;51319;52.162;5.302;2023-02-18T01:38:37;9.90;99.90
43999;DHT22;51319;52.162;5.302;2023-02-18T01:41:05;9.80;99.90
43999;DHT22;51319;52.162;5.302;2023-02-18T01:43:33;9.80;99.90
43999;DHT22;51319;52.162;5.302;2023-02-18T01:46:16;9.80;99.90
43999;DHT22;51319;52.162;5.302;2023-02-18T01:51:29;9.70;99.90
43999;DHT22;51319;52.162;5.302;2023-02-18T01:54:21;9.70;99.90
43999;DHT22;51319;52.162;5.302;2023-02-18T01:56:52;9.70;99.90
43999;DHT22;51319;52.162;5.302;2023-02-18T01:59:25;9.70;99.90
43999;DHT22;51319;52.162;5.302;2023-02-18T02:01:54;9.60;99.90
43999;DHT22;51319;52.162;5.302;2023-02-18T02:04:21;9.60;99.90
43999;DHT22;51319;52.162;5.302;2023-02-18T02:06:48;9.60;99.90
43999;DHT22;51319;52.162;5.302;2023-02-18T02:09:16;9.70;99.90
43999;DHT22;51319;52.162;5.302;2023-02-18T02:23:26;9.60;99.90
43999;DHT22;51319;52.162;5.302;2023-02-18T02:29:10;9.60;99.90
43999;DHT22;51319;52.162;5.302;2023-02-18T02:32:02;9.60;99.90
43999;DHT22;51319;52.162;5.302;2023-02-18T02:35:03;9.60;99.90
43999;DHT22;51319;52.162;5.302;2023-02-18T02:40:32;9.60;99.90
43999;DHT22;51319;52.162;5.302;2023-02-18T02:53:53;9.50;99.90
43999;DHT22;51319;52.162;5.302;2023-02-18T02:56:22;9.50;99.90
43999;DHT22;51319;52.162;5.302;2023-02-18T02:59:11;9.60;99.90
43999;DHT22;51319;52.162;5.302;2023-02-18T03:02:43;9.60;99.90
43999;DHT22;51319;52.162;5.302;2023-02-18T03:24:43;9.70;99.90
43999;DHT22;51319;52.162;5.302;2023-02-18T03:27:20;9.70;99.90
43999;DHT22;51319;52.162;5.302;2023-02-18T03:29:52;9.80;99.90
43999;DHT22;51319;52.162;5.302;2023-02-18T03:32:22;9.80;99.90
43999;DHT22;51319;52.162;5.302;2023-02-18T03:35:12;9.80;99.90
43999;DHT22;51319;52.162;5.302;2023-02-18T03:37:47;9.80;99.90
43999;DHT22;51319;52.162;5.302;2023-02-18T03:40:17;9.90;99.90
43999;DHT22;51319;52.162;5.302;2023-02-18T03:42:45;9.90;99.90
43999;DHT22;51319;52.162;5.302;2023-02-18T03:45:12;9.90;99.90
43999;DHT22;51319;52.162;5.302;2023-02-18T03:47:39;9.90;99.90
43999;DHT22;51319;52.162;5.302;2023-02-18T03:50:06;9.90;99.90
43999;DHT22;51319;52.162;5.302;2023-02-18T03:52:33;9.80;99.90
43999;DHT22;51319;52.162;5.302;2023-02-18T03:55:04;9.90;99.90
43999;DHT22;51319;52.162;5.302;2023-02-18T03:57:31;9.90;99.90
43999;DHT22;51319;52.162;5.302;2023-02-18T03:59:58;9.80;99.90
43999;DHT22;51319;52.162;5.302;2023-02-18T04:02:25;9.80;99.90
43999;DHT22;51319;52.162;5.302;2023-02-18T04:04:52;9.80;99.90
43999;DHT22;51319;52.162;5.302;2023-02-18T04:07:19;9.80;99.90
43999;DHT22;51319;52.162;5.302;2023-02-18T04:09:46;9.80;99.90
43999;DHT22;51319;52.162;5.302;2023-02-18T04:12:13;9.80;99.90
43999;DHT22;51319;52.162;5.302;2023-02-18T04:14:40;9.80;99.90
43999;DHT22;51319;52.162;5.302;2023-02-18T04:17:07;9.80;99.90
43999;DHT22;51319;52.162;5.302;2023-02-18T04:19:34;9.80;99.90
43999;DHT22;51319;52.162;5.302;2023-02-18T04:22:01;9.80;99.90
43999;DHT22;51319;52.162;5.302;2023-02-18T04:24:28;9.80;99.90
43999;DHT22;51319;52.162;5.302;2023-02-18T04:26:55;9.90;99.90
43999;DHT22;51319;52.162;5.302;2023-02-18T04:29:22;9.90;99.90
43999;DHT22;51319;52.162;5.302;2023-02-18T04:31:49;9.90;99.90
43999;DHT22;51319;52.162;5.302;2023-02-18T04:34:15;9.90;99.90
43999;DHT22;51319;52.162;5.302;2023-02-18T04:36:42;9.90;99.90
43999;DHT22;51319;52.162;5.302;2023-02-18T04:39:09;9.90;99.90
43999;DHT22;51319;52.162;5.302;2023-02-18T04:41:36;10.00;99.90
43999;DHT22;51319;52.162;5.302;2023-02-18T04:44:03;9.90;99.90
43999;DHT22;51319;52.162;5.302;2023-02-18T04:46:31;9.90;99.90
43999;DHT22;51319;52.162;5.302;2023-02-18T04:48:58;10.00;99.90
43999;DHT22;51319;52.162;5.302;2023-02-18T04:51:31;9.90;99.90
43999;DHT22;51319;52.162;5.302;2023-02-18T04:53:58;9.90;99.90
43999;DHT22;51319;52.162;5.302;2023-02-18T04:56:25;9.90;99.90
43999;DHT22;51319;52.162;5.302;2023-02-18T04:58:52;9.90;99.90
43999;DHT22;51319;52.162;5.302;2023-02-18T05:01:19;9.90;99.90
43999;DHT22;51319;52.162;5.302;2023-02-18T05:03:46;9.90;99.90
43999;DHT22;51319;52.162;5.302;2023-02-18T05:06:13;9.90;99.90
43999;DHT22;51319;52.162;5.302;2023-02-18T05:08:39;9.90;99.90
43999;DHT22;51319;52.162;5.302;2023-02-18T05:11:07;9.90;99.90
43999;DHT22;51319;52.162;5.302;2023-02-18T05:13:34;9.90;99.90
43999;DHT22;51319;52.162;5.302;2023-02-18T05:16:01;9.90;99.90
43999;DHT22;51319;52.162;5.302;2023-02-18T05:18:28;9.90;99.90
43999;DHT22;51319;52.162;5.302;2023-02-18T05:20:55;9.90;99.90
43999;DHT22;51319;52.162;5.302;2023-02-18T05:23:22;9.90;99.90
43999;DHT22;51319;52.162;5.302;2023-02-18T05:25:50;9.90;99.90
43999;DHT22;51319;52.162;5.302;2023-02-18T05:28:17;9.90;99.90
43999;DHT22;51319;52.162;5.302;2023-02-18T05:30:44;9.90;99.90
43999;DHT22;51319;52.162;5.302;2023-02-18T05:33:11;9.90;99.90
43999;DHT22;51319;52.162;5.302;2023-02-18T05:35:38;9.90;99.90
43999;DHT22;51319;52.162;5.302;2023-02-18T05:38:05;9.90;99.90
43999;DHT22;51319;52.162;5.302;2023-02-18T05:40:32;9.90;99.90
43999;DHT22;51319;52.162;5.302;2023-02-18T05:42:58;9.90;99.90
43999;DHT22;51319;52.162;5.302;2023-02-18T05:45:25;9.90;99.90
43999;DHT22;51319;52.162;5.302;2023-02-18T05:47:52;9.90;99.90
43999;DHT22;51319;52.162;5.302;2023-02-18T05:50:19;9.90;99.90
43999;DHT22;51319;52.162;5.302;2023-02-18T05:52:46;9.90;99.90
43999;DHT22;51319;52.162;5.302;2023-02-18T05:55:13;9.90;99.90
43999;DHT22;51319;52.162;5.302;2023-02-18T05:57:40;9.90;99.90
43999;DHT22;51319;52.162;5.302;2023-02-18T06:00:08;10.00;99.90
43999;DHT22;51319;52.162;5.302;2023-02-18T06:02:36;9.90;99.90
43999;DHT22;51319;52.162;5.302;2023-02-18T06:05:04;10.00;99.90
43999;DHT22;51319;52.162;5.302;2023-02-18T06:07:32;10.00;99.90
43999;DHT22;51319;52.162;5.302;2023-02-18T06:09:59;10.00;99.90
43999;DHT22;51319;52.162;5.302;2023-02-18T06:12:26;10.00;99.90
43999;DHT22;51319;52.162;5.302;2023-02-18T06:14:53;10.00;99.90
43999;DHT22;51319;52.162;5.302;2023-02-18T06:17:20;10.10;99.90
43999;DHT22;51319;52.162;5.302;2023-02-18T06:19:48;10.10;99.90
43999;DHT22;51319;52.162;5.302;2023-02-18T06:22:15;10.10;99.90
43999;DHT22;51319;52.162;5.302;2023-02-18T06:24:42;10.10;99.90
43999;DHT22;51319;52.162;5.302;2023-02-18T06:27:09;10.10;99.90
43999;DHT22;51319;52.162;5.302;2023-02-18T06:29:36;10.10;99.90
43999;DHT22;51319;52.162;5.302;2023-02-18T06:32:03;10.10;99.90
43999;DHT22;51319;52.162;5.302;2023-02-18T06:34:31;10.10;99.90
43999;DHT22;51319;52.162;5.302;2023-02-18T06:36:58;10.20;99.90
43999;DHT22;51319;52.162;5.302;2023-02-18T06:39:26;10.20;99.90
43999;DHT22;51319;52.162;5.302;2023-02-18T06:41:56;10.20;99.90
43999;DHT22;51319;52.162;5.302;2023-02-18T06:44:24;10.20;99.90
43999;DHT22;51319;52.162;5.302;2023-02-18T06:46:50;10.20;99.90
43999;DHT22;51319;52.162;5.302;2023-02-18T06:49:17;10.20;99.90
43999;DHT22;51319;52.162;5.302;2023-02-18T06:51:45;10.20;99.90
43999;DHT22;51319;52.162;5.302;2023-02-18T06:54:12;10.20;99.90
43999;DHT22;51319;52.162;5.302;2023-02-18T06:56:38;10.20;99.90
43999;DHT22;51319;52.162;5.302;2023-02-18T06:59:05;10.20;99.90
43999;DHT22;51319;52.162;5.302;2023-02-18T07:01:33;10.20;99.90
43999;DHT22;51319;52.162;5.302;2023-02-18T07:04:00;10.20;99.90
43999;DHT22;51319;52.162;5.302;2023-02-18T07:06:27;10.20;99.90
43999;DHT22;51319;52.162;5.302;2023-02-18T07:08:54;10.10;99.90
43999;DHT22;51319;52.162;5.302;2023-02-18T07:11:22;10.20;99.90
43999;DHT22;51319;52.162;5.302;2023-02-18T07:13:49;10.20;99.90
43999;DHT22;51319;52.162;5.302;2023-02-18T07:16:15;10.20;99.90
43999;DHT22;51319;52.162;5.302;2023-02-18T07:18:42;10.20;99.90
43999;DHT22;51319;52.162;5.302;2023-02-18T07:21:09;10.20;99.90
43999;DHT22;51319;52.162;5.302;2023-02-18T07:23:37;10.20;99.90
43999;DHT22;51319;52.162;5.302;2023-02-18T07:26:06;10.20;99.90
43999;DHT22;51319;52.162;5.302;2023-02-18T07:28:34;10.10;99.90
43999;DHT22;51319;52.162;5.302;2023-02-18T07:31:01;10.20;99.90
43999;DHT22;51319;52.162;5.302;2023-02-18T07:33:28;10.10;99.90
43999;DHT22;51319;52.162;5.302;2023-02-18T07:35:57;10.20;99.90
43999;DHT22;51319;52.162;5.302;2023-02-18T07:38:25;10.20;99.90
43999;DHT22;51319;52.162;5.302;2023-02-18T07:40:54;10.20;99.90
43999;DHT22;51319;52.162;5.302;2023-02-18T07:43:21;10.20;99.90
43999;DHT22;51319;52.162;5.302;2023-02-18T07:45:48;10.20;99.90
43999;DHT22;51319;52.162;5.302;2023-02-18T07:48:15;10.20;99.90
43999;DHT22;51319;52.162;5.302;2023-02-18T07:50:44;10.30;99.90
43999;DHT22;51319;52.162;5.302;2023-02-18T07:53:12;10.20;99.90
43999;DHT22;51319;52.162;5.302;2023-02-18T07:55:40;10.20;99.90
43999;DHT22;51319;52.162;5.302;2023-02-18T07:58:22;10.20;99.90
43999;DHT22;51319;52.162;5.302;2023-02-18T08:00:50;10.20;99.90
43999;DHT22;51319;52.162;5.302;2023-02-18T08:03:18;10.20;99.90
43999;DHT22;51319;52.162;5.302;2023-02-18T08:05:49;10.20;99.90
43999;DHT22;51319;52.162;5.302;2023-02-18T08:08:19;10.20;99.90
43999;DHT22;51319;52.162;5.302;2023-02-18T08:10:47;10.20;99.90
43999;DHT22;51319;52.162;5.302;2023-02-18T08:13:14;10.20;99.90
43999;DHT22;51319;52.162;5.302;2023-02-18T08:15:41;10.20;99.90
43999;DHT22;51319;52.162;5.302;2023-02-18T08:18:14;10.20;99.90
43999;DHT22;51319;52.162;5.302;2023-02-18T08:20:41;10.20;99.90
43999;DHT22;51319;52.162;5.302;2023-02-18T08:23:09;10.20;99.90
43999;DHT22;51319;52.162;5.302;2023-02-18T08:25:36;10.20;99.90
43999;DHT22;51319;52.162;5.302;2023-02-18T08:28:04;10.10;99.90
43999;DHT22;51319;52.162;5.302;2023-02-18T08:30:31;10.10;99.90
43999;DHT22;51319;52.162;5.302;2023-02-18T08:32:58;10.00;99.90
43999;DHT22;51319;52.162;5.302;2023-02-18T08:35:25;10.00;99.90
43999;DHT22;51319;52.162;5.302;2023-02-18T08:37:52;10.00;99.90
43999;DHT22;51319;52.162;5.302;2023-02-18T08:40:21;9.90;99.90
43999;DHT22;51319;52.162;5.302;2023-02-18T08:42:48;9.90;99.90
43999;DHT22;51319;52.162;5.302;2023-02-18T08:45:15;9.80;99.90
43999;DHT22;51319;52.162;5.302;2023-02-18T08:47:42;9.80;99.90
43999;DHT22;51319;52.162;5.302;2023-02-18T08:50:29;9.80;99.90
43999;DHT22;51319;52.162;5.302;2023-02-18T08:52:57;9.80;99.90
43999;DHT22;51319;52.162;5.302;2023-02-18T08:55:30;9.80;99.90
43999;DHT22;51319;52.162;5.302;2023-02-18T08:57:58;9.70;99.90
43999;DHT22;51319;52.162;5.302;2023-02-18T09:00:26;9.70;99.90
43999;DHT22;51319;52.162;5.302;2023-02-18T09:02:53;9.70;99.90
43999;DHT22;51319;52.162;5.302;2023-02-18T09:05:20;9.70;99.90
43999;DHT22;51319;52.162;5.302;2023-02-18T09:07:47;9.80;99.90
43999;DHT22;51319;52.162;5.302;2023-02-18T09:10:14;9.80;99.90
43999;DHT22;51319;52.162;5.302;2023-02-18T09:12:41;9.80;99.90
43999;DHT22;51319;52.162;5.302;2023-02-18T09:15:08;9.80;99.90
43999;DHT22;51319;52.162;5.302;2023-02-18T09:17:35;9.90;99.90
43999;DHT22;51319;52.162;5.302;2023-02-18T09:20:03;9.90;99.90
43999;DHT22;51319;52.162;5.302;2023-02-18T09:22:30;9.90;99.90
43999;DHT22;51319;52.162;5.302;2023-02-18T09:24:58;9.90;99.90
43999;DHT22;51319;52.162;5.302;2023-02-18T09:27:25;9.90;99.90
43999;DHT22;51319;52.162;5.302;2023-02-18T09:29:52;10.00;99.90
43999;DHT22;51319;52.162;5.302;2023-02-18T09:32:19;10.00;99.90
43999;DHT22;51319;52.162;5.302;2023-02-18T09:34:59;10.00;99.90
43999;DHT22;51319;52.162;5.302;2023-02-18T09:37:26;10.10;99.90
43999;DHT22;51319;52.162;5.302;2023-02-18T09:39:54;10.10;99.90
43999;DHT22;51319;52.162;5.302;2023-02-18T09:42:26;10.10;99.90
43999;DHT22;51319;52.162;5.302;2023-02-18T09:44:58;10.10;99.90
43999;DHT22;51319;52.162;5.302;2023-02-18T09:47:36;10.20;99.90
43999;DHT22;51319;52.162;5.302;2023-02-18T09:50:25;10.20;99.90
43999;DHT22;51319;52.162;5.302;2023-02-18T09:52:53;10.30;99.90
43999;DHT22;51319;52.162;5.302;2023-02-18T09:55:27;10.30;99.90
43999;DHT22;51319;52.162;5.302;2023-02-18T09:58:02;10.40;99.90
43999;DHT22;51319;52.162;5.302;2023-02-18T10:00:37;10.40;99.90
43999;DHT22;51319;52.162;5.302;2023-02-18T10:03:16;10.40;99.90
43999;DHT22;51319;52.162;5.302;2023-02-18T10:06:01;10.50;99.90
43999;DHT22;51319;52.162;5.302;2023-02-18T10:11:00;10.60;99.90
43999;DHT22;51319;52.162;5.302;2023-02-18T10:13:30;10.60;99.90
43999;DHT22;51319;52.162;5.302;2023-02-18T10:15:58;10.70;99.90
43999;DHT22;51319;52.162;5.302;2023-02-18T10:18:47;10.80;99.90
43999;DHT22;51319;52.162;5.302;2023-02-18T10:21:18;10.80;99.90
43999;DHT22;51319;52.162;5.302;2023-02-18T10:23:59;10.80;99.90
43999;DHT22;51319;52.162;5.302;2023-02-18T10:26:30;10.80;99.90
43999;DHT22;51319;52.162;5.302;2023-02-18T10:28:58;10.80;99.90
43999;DHT22;51319;52.162;5.302;2023-02-18T10:31:34;10.80;99.90
43999;DHT22;51319;52.162;5.302;2023-02-18T10:34:41;10.90;99.90
43999;DHT22;51319;52.162;5.302;2023-02-18T10:43:21;11.20;99.90
43999;DHT22;51319;52.162;5.302;2023-02-18T10:51:55;11.50;99.90
43999;DHT22;51319;52.162;5.302;2023-02-18T10:54:25;11.70;99.90
43999;DHT22;51319;52.162;5.302;2023-02-18T10:56:59;11.80;99.90
43999;DHT22;51319;52.162;5.302;2023-02-18T10:59:31;11.80;99.90
43999;DHT22;51319;52.162;5.302;2023-02-18T11:02:03;11.70;99.90
43999;DHT22;51319;52.162;5.302;2023-02-18T11:04:43;11.70;99.90
43999;DHT22;51319;52.162;5.302;2023-02-18T11:07:19;11.70;99.90
43999;DHT22;51319;52.162;5.302;2023-02-18T11:10:12;11.70;99.90
43999;DHT22;51319;52.162;5.302;2023-02-18T11:12:45;11.80;99.90
43999;DHT22;51319;52.162;5.302;2023-02-18T11:17:42;12.00;99.80
43999;DHT22;51319;52.162;5.302;2023-02-18T11:20:41;12.10;99.40
43999;DHT22;51319;52.162;5.302;2023-02-18T11:23:20;12.00;98.70
43999;DHT22;51319;52.162;5.302;2023-02-18T11:26:16;12.00;98.70
43999;DHT22;51319;52.162;5.302;2023-02-18T11:28:49;12.00;98.70
43999;DHT22;51319;52.162;5.302;2023-02-18T11:31:23;12.00;98.90
43999;DHT22;51319;52.162;5.302;2023-02-18T11:33:56;11.90;98.80
43999;DHT22;51319;52.162;5.302;2023-02-18T11:36:30;11.90;98.80
43999;DHT22;51319;52.162;5.302;2023-02-18T11:39:20;11.80;99.20
43999;DHT22;51319;52.162;5.302;2023-02-18T11:44:34;11.70;99.90
43999;DHT22;51319;52.162;5.302;2023-02-18T11:49:44;11.90;99.90
43999;DHT22;51319;52.162;5.302;2023-02-18T11:52:26;11.90;99.90
43999;DHT22;51319;52.162;5.302;2023-02-18T11:55:04;11.90;99.90
43999;DHT22;51319;52.162;5.302;2023-02-18T11:57:37;11.90;99.90
43999;DHT22;51319;52.162;5.302;2023-02-18T12:03:12;12.00;99.90
43999;DHT22;51319;52.162;5.302;2023-02-18T12:05:43;12.20;99.90
43999;DHT22;51319;52.162;5.302;2023-02-18T12:08:27;12.30;99.90
43999;DHT22;51319;52.162;5.302;2023-02-18T12:11:04;12.20;99.20
43999;DHT22;51319;52.162;5.302;2023-02-18T12:13:49;12.20;98.80
43999;DHT22;51319;52.162;5.302;2023-02-18T12:16:23;12.10;98.60
43999;DHT22;51319;52.162;5.302;2023-02-18T12:21:58;12.10;98.40
43999;DHT22;51319;52.162;5.302;2023-02-18T12:30:06;12.00;98.50
43999;DHT22;51319;52.162;5.302;2023-02-18T12:32:51;12.10;98.60
43999;DHT22;51319;52.162;5.302;2023-02-18T12:40:57;12.40;97.90
43999;DHT22;51319;52.162;5.302;2023-02-18T12:49:32;12.70;97.50
43999;DHT22;51319;52.162;5.302;2023-02-18T12:57:53;13.10;95.90
43999;DHT22;51319;52.162;5.302;2023-02-18T13:03:58;13.10;95.10
43999;DHT22;51319;52.162;5.302;2023-02-18T13:09:34;12.80;95.10
43999;DHT22;51319;52.162;5.302;2023-02-18T13:14:55;12.60;95.50
43999;DHT22;51319;52.162;5.302;2023-02-18T13:17:32;12.60;95.80
43999;DHT22;51319;52.162;5.302;2023-02-18T13:20:20;12.60;96.10
43999;DHT22;51319;52.162;5.302;2023-02-18T13:22:48;12.60;96.10
43999;DHT22;51319;52.162;5.302;2023-02-18T13:25:17;12.60;96.00
43999;DHT22;51319;52.162;5.302;2023-02-18T13:31:21;12.60;95.90
43999;DHT22;51319;52.162;5.302;2023-02-18T13:34:01;12.60;96.00
43999;DHT22;51319;52.162;5.302;2023-02-18T13:39:20;12.70;95.90
43999;DHT22;51319;52.162;5.302;2023-02-18T13:41:50;12.70;96.00
43999;DHT22;51319;52.162;5.302;2023-02-18T13:46:48;12.80;95.60
43999;DHT22;51319;52.162;5.302;2023-02-18T13:49:30;12.80;95.50
43999;DHT22;51319;52.162;5.302;2023-02-18T13:51:59;12.90;95.40
43999;DHT22;51319;52.162;5.302;2023-02-18T13:57:00;12.80;95.10
43999;DHT22;51319;52.162;5.302;2023-02-18T13:59:39;12.80;95.30
43999;DHT22;51319;52.162;5.302;2023-02-18T14:02:28;12.90;95.30
43999;DHT22;51319;52.162;5.302;2023-02-18T14:05:15;13.00;95.10
43999;DHT22;51319;52.162;5.302;2023-02-18T14:08:11;13.20;95.10
43999;DHT22;51319;52.162;5.302;2023-02-18T14:10:38;13.30;94.60
43999;DHT22;51319;52.162;5.302;2023-02-18T14:13:42;13.40;94.20
43999;DHT22;51319;52.162;5.302;2023-02-18T14:16:10;13.40;93.50
43999;DHT22;51319;52.162;5.302;2023-02-18T14:28:53;13.70;92.80
43999;DHT22;51319;52.162;5.302;2023-02-18T14:31:29;13.70;92.50
43999;DHT22;51319;52.162;5.302;2023-02-18T14:34:10;13.70;92.20
43999;DHT22;51319;52.162;5.302;2023-02-18T14:37:00;13.70;92.10
43999;DHT22;51319;52.162;5.302;2023-02-18T14:39:42;13.70;92.00
43999;DHT22;51319;52.162;5.302;2023-02-18T14:42:33;13.70;92.00
43999;DHT22;51319;52.162;5.302;2023-02-18T14:50:56;13.60;92.10
43999;DHT22;51319;52.162;5.302;2023-02-18T14:53:26;13.50;92.20
43999;DHT22;51319;52.162;5.302;2023-02-18T14:55:58;13.50;92.30
43999;DHT22;51319;52.162;5.302;2023-02-18T14:58:46;13.40;92.50
43999;DHT22;51319;52.162;5.302;2023-02-18T15:01:28;13.30;92.70
43999;DHT22;51319;52.162;5.302;2023-02-18T15:03:56;13.30;92.80
43999;DHT22;51319;52.162;5.302;2023-02-18T15:06:24;13.30;92.90
43999;DHT22;51319;52.162;5.302;2023-02-18T15:08:51;13.20;93.10
43999;DHT22;51319;52.162;5.302;2023-02-18T15:11:24;13.20;93.40
43999;DHT22;51319;52.162;5.302;2023-02-18T15:13:51;13.10;93.20
43999;DHT22;51319;52.162;5.302;2023-02-18T15:18:57;13.00;93.60
43999;DHT22;51319;52.162;5.302;2023-02-18T15:21:28;13.00;93.70
43999;DHT22;51319;52.162;5.302;2023-02-18T15:24:22;13.00;93.80
43999;DHT22;51319;52.162;5.302;2023-02-18T15:26:48;13.00;93.80
43999;DHT22;51319;52.162;5.302;2023-02-18T15:29:26;13.00;94.00
43999;DHT22;51319;52.162;5.302;2023-02-18T15:31:55;13.00;94.10
43999;DHT22;51319;52.162;5.302;2023-02-18T15:34:36;13.00;94.00
43999;DHT22;51319;52.162;5.302;2023-02-18T15:37:05;12.90;94.10
43999;DHT22;51319;52.162;5.302;2023-02-18T15:39:34;12.90;94.30
43999;DHT22;51319;52.162;5.302;2023-02-18T15:45:00;12.90;94.50
43999;DHT22;51319;52.162;5.302;2023-02-18T15:47:28;12.80;94.60
43999;DHT22;51319;52.162;5.302;2023-02-18T15:49:59;12.70;94.70
43999;DHT22;51319;52.162;5.302;2023-02-18T15:52:32;12.70;94.80
43999;DHT22;51319;52.162;5.302;2023-02-18T15:55:11;12.70;94.80
43999;DHT22;51319;52.162;5.302;2023-02-18T15:57:41;12.60;94.80
43999;DHT22;51319;52.162;5.302;2023-02-18T16:02:56;12.50;95.00
43999;DHT22;51319;52.162;5.302;2023-02-18T16:05:28;12.50;95.00
43999;DHT22;51319;52.162;5.302;2023-02-18T16:08:01;12.50;95.10
43999;DHT22;51319;52.162;5.302;2023-02-18T16:13:02;12.40;95.40
43999;DHT22;51319;52.162;5.302;2023-02-18T16:15:36;12.40;95.60
43999;DHT22;51319;52.162;5.302;2023-02-18T16:18:22;12.40;95.80
43999;DHT22;51319;52.162;5.302;2023-02-18T16:20:58;12.30;96.00
43999;DHT22;51319;52.162;5.302;2023-02-18T16:23:34;12.30;96.00
43999;DHT22;51319;52.162;5.302;2023-02-18T16:28:45;12.20;96.10
43999;DHT22;51319;52.162;5.302;2023-02-18T16:31:12;12.20;96.30
43999;DHT22;51319;52.162;5.302;2023-02-18T16:33:42;12.20;96.40
43999;DHT22;51319;52.162;5.302;2023-02-18T16:36:13;12.20;96.50
43999;DHT22;51319;52.162;5.302;2023-02-18T16:38:44;12.20;96.40
43999;DHT22;51319;52.162;5.302;2023-02-18T16:41:13;12.10;96.50
43999;DHT22;51319;52.162;5.302;2023-02-18T16:43:40;12.10;96.60
43999;DHT22;51319;52.162;5.302;2023-02-18T16:46:14;12.00;96.70
43999;DHT22;51319;52.162;5.302;2023-02-18T16:48:46;12.10;97.00
43999;DHT22;51319;52.162;5.302;2023-02-18T16:51:20;12.00;97.10
43999;DHT22;51319;52.162;5.302;2023-02-18T16:53:47;12.00;97.10
43999;DHT22;51319;52.162;5.302;2023-02-18T16:56:20;12.00;97.20
43999;DHT22;51319;52.162;5.302;2023-02-18T16:58:48;12.00;97.20
43999;DHT22;51319;52.162;5.302;2023-02-18T17:01:28;11.90;97.20
43999;DHT22;51319;52.162;5.302;2023-02-18T17:04:00;11.90;97.40
43999;DHT22;51319;52.162;5.302;2023-02-18T17:06:28;11.90;97.50
43999;DHT22;51319;52.162;5.302;2023-02-18T17:08:55;11.80;97.60
43999;DHT22;51319;52.162;5.302;2023-02-18T17:11:29;11.80;97.70
43999;DHT22;51319;52.162;5.302;2023-02-18T17:13:57;11.80;97.90
43999;DHT22;51319;52.162;5.302;2023-02-18T17:16:26;11.70;98.00
43999;DHT22;51319;52.162;5.302;2023-02-18T17:18:53;11.70;98.20
43999;DHT22;51319;52.162;5.302;2023-02-18T17:21:23;11.70;98.40
43999;DHT22;51319;52.162;5.302;2023-02-18T17:23:51;11.70;98.50
43999;DHT22;51319;52.162;5.302;2023-02-18T17:26:24;11.70;98.60
43999;DHT22;51319;52.162;5.302;2023-02-18T17:28:52;11.60;98.50
43999;DHT22;51319;52.162;5.302;2023-02-18T17:31:23;11.60;98.50
43999;DHT22;51319;52.162;5.302;2023-02-18T17:33:53;11.50;98.70
43999;DHT22;51319;52.162;5.302;2023-02-18T17:36:21;11.60;98.80
43999;DHT22;51319;52.162;5.302;2023-02-18T17:38:48;11.50;98.90
43999;DHT22;51319;52.162;5.302;2023-02-18T17:41:16;11.50;99.10
43999;DHT22;51319;52.162;5.302;2023-02-18T17:43:43;11.50;99.10
43999;DHT22;51319;52.162;5.302;2023-02-18T17:46:12;11.50;99.20
43999;DHT22;51319;52.162;5.302;2023-02-18T17:48:40;11.40;99.20
43999;DHT22;51319;52.162;5.302;2023-02-18T17:51:23;11.50;99.40
43999;DHT22;51319;52.162;5.302;2023-02-18T17:53:50;11.40;99.50
43999;DHT22;51319;52.162;5.302;2023-02-18T17:56:17;11.40;99.60
43999;DHT22;51319;52.162;5.302;2023-02-18T17:58:44;11.40;99.60
43999;DHT22;51319;52.162;5.302;2023-02-18T18:01:12;11.40;99.80
43999;DHT22;51319;52.162;5.302;2023-02-18T18:03:40;11.30;99.80
43999;DHT22;51319;52.162;5.302;2023-02-18T18:06:17;11.30;99.90
43999;DHT22;51319;52.162;5.302;2023-02-18T18:08:45;11.20;99.90
43999;DHT22;51319;52.162;5.302;2023-02-18T18:11:19;11.20;99.90
43999;DHT22;51319;52.162;5.302;2023-02-18T18:13:47;11.10;99.90
43999;DHT22;51319;52.162;5.302;2023-02-18T18:16:16;11.00;99.90
43999;DHT22;51319;52.162;5.302;2023-02-18T18:18:43;10.90;99.90
43999;DHT22;51319;52.162;5.302;2023-02-18T18:21:32;10.90;99.90
43999;DHT22;51319;52.162;5.302;2023-02-18T18:24:01;10.90;99.90
43999;DHT22;51319;52.162;5.302;2023-02-18T18:26:28;10.80;99.90
43999;DHT22;51319;52.162;5.302;2023-02-18T18:28:57;10.80;99.90
43999;DHT22;51319;52.162;5.302;2023-02-18T18:31:25;10.80;99.90